createdAt,value
2019-05-22T00:02:03.497Z,7.10
2019-05-22T00:04:34.692Z,7.00
2019-05-22T00:07:05.156Z,6.80
2019-05-22T00:09:37.673Z,6.70
2019-05-22T00:12:09.768Z,6.60
2019-05-22T00:14:38.617Z,6.50
2019-05-22T00:17:11.130Z,6.40
2019-05-22T00:19:41.439Z,6.40
2019-05-22T00:22:11.947Z,6.30
2019-05-22T00:24:44.304Z,6.10
2019-05-22T00:27:15.101Z,6.10
2019-05-22T00:29:46.447Z,6.20
2019-05-22T00:32:16.938Z,6.10
2019-05-22T00:34:47.216Z,6.10
2019-05-22T00:37:17.729Z,6.10
2019-05-22T00:39:48.803Z,6.00
2019-05-22T00:42:19.321Z,6.00
2019-05-22T00:44:49.008Z,5.90
2019-05-22T00:47:22.474Z,5.80
2019-05-22T00:49:53.200Z,5.90
2019-05-22T00:52:45.325Z,5.90
2019-05-22T00:55:27.863Z,5.80
2019-05-22T00:57:58.732Z,5.80
2019-05-22T01:00:34.785Z,5.70
2019-05-22T01:03:07.202Z,5.60
2019-05-22T01:05:37.737Z,5.60
2019-05-22T01:08:06.791Z,5.50
2019-05-22T01:10:38.188Z,5.40
2019-05-22T01:13:08.756Z,5.30
2019-05-22T01:15:38.496Z,5.30
2019-05-22T01:18:10.400Z,5.30
2019-05-22T01:20:41.639Z,5.30
2019-05-22T01:23:13.230Z,5.30
2019-05-22T01:25:43.120Z,5.30
2019-05-22T01:28:13.750Z,5.20
2019-05-22T01:30:44.245Z,5.20
2019-05-22T01:33:30.561Z,5.20
2019-05-22T01:36:03.793Z,5.10
2019-05-22T01:38:34.813Z,5.10
2019-05-22T01:41:29.006Z,5.10
2019-05-22T01:44:00.495Z,5.20
2019-05-22T01:46:32.837Z,5.10
2019-05-22T01:49:04.377Z,5.00
2019-05-22T01:51:34.360Z,5.00
2019-05-22T01:54:04.047Z,5.00
2019-05-22T01:56:34.672Z,4.90
2019-05-22T01:59:04.455Z,4.80
2019-05-22T02:01:33.536Z,4.80
2019-05-22T02:04:02.482Z,4.80
2019-05-22T02:06:31.510Z,4.90
2019-05-22T02:09:21.889Z,4.90
2019-05-22T02:11:54.414Z,5.10
2019-05-22T02:14:25.111Z,5.30
2019-05-22T02:16:57.322Z,5.50
2019-05-22T02:19:26.299Z,5.60
2019-05-22T02:21:59.341Z,5.70
2019-05-22T02:24:28.949Z,5.80
2019-05-22T02:26:58.953Z,5.70
2019-05-22T02:29:29.608Z,5.70
2019-05-22T02:31:58.535Z,5.70
2019-05-22T02:34:30.298Z,5.60
2019-05-22T02:37:00.328Z,5.60
2019-05-22T02:39:31.302Z,5.60
2019-05-22T02:42:04.859Z,5.60
2019-05-22T02:44:35.764Z,5.40
2019-05-22T02:47:17.955Z,5.20
2019-05-22T02:49:37.078Z,5.10
2019-05-22T02:52:07.689Z,5.10
2019-05-22T02:54:37.844Z,5.10
2019-05-22T02:57:07.704Z,5.00
2019-05-22T02:59:37.425Z,4.90
2019-05-22T03:02:09.913Z,4.80
2019-05-22T03:04:54.891Z,4.70
2019-05-22T03:07:24.803Z,4.70
2019-05-22T03:09:54.272Z,4.60
2019-05-22T03:12:24.912Z,4.70
2019-05-22T03:14:55.925Z,4.90
2019-05-22T03:17:31.655Z,5.10
2019-05-22T03:20:04.321Z,5.30
2019-05-22T03:22:52.053Z,5.40
2019-05-22T03:25:22.536Z,5.50
2019-05-22T03:27:52.295Z,5.60
2019-05-22T03:30:27.266Z,5.70
2019-05-22T03:32:57.659Z,5.70
2019-05-22T03:35:29.956Z,5.60
2019-05-22T03:38:00.407Z,5.50
2019-05-22T03:40:31.214Z,5.40
2019-05-22T03:43:03.027Z,5.30
2019-05-22T03:45:33.061Z,5.20
2019-05-22T03:48:04.791Z,5.10
2019-05-22T03:50:33.807Z,5.10
2019-05-22T03:53:09.782Z,5.10
2019-05-22T03:55:39.081Z,5.00
2019-05-22T03:58:09.193Z,4.90
2019-05-22T04:00:59.002Z,4.90
2019-05-22T04:03:27.913Z,4.90
2019-05-22T04:05:57.607Z,5.10
2019-05-22T04:08:27.885Z,5.30
2019-05-22T04:11:00.230Z,5.50
2019-05-22T04:13:29.895Z,5.60
2019-05-22T04:15:58.897Z,5.70
2019-05-22T04:18:28.450Z,5.90
2019-05-22T04:20:58.418Z,6.00
2019-05-22T04:23:27.747Z,6.10
2019-05-22T04:25:57.818Z,6.10
2019-05-22T04:28:28.070Z,6.30
2019-05-22T04:30:59.919Z,6.40
2019-05-22T04:33:30.556Z,6.50
2019-05-22T04:36:02.177Z,6.60
2019-05-22T04:38:31.615Z,6.60
2019-05-22T04:41:01.622Z,6.70
2019-05-22T04:43:34.256Z,6.70
2019-05-22T04:46:06.544Z,6.70
2019-05-22T04:48:36.722Z,6.90
2019-05-22T04:51:24.371Z,7.10
2019-05-22T04:53:54.232Z,7.30
2019-05-22T04:56:24.062Z,7.40
2019-05-22T04:58:55.300Z,7.50
2019-05-22T05:01:24.869Z,7.50
2019-05-22T05:03:54.034Z,7.50
2019-05-22T05:06:24.350Z,7.60
2019-05-22T05:08:53.504Z,7.70
2019-05-22T05:11:22.786Z,7.70
2019-05-22T05:16:38.405Z,7.80
2019-05-22T05:19:07.380Z,7.80
2019-05-22T05:21:38.042Z,7.90
2019-05-22T05:24:07.322Z,7.90
2019-05-22T05:26:38.489Z,7.90
2019-05-22T05:29:10.231Z,7.90
2019-05-22T05:31:40.696Z,8.00
2019-05-22T05:34:24.615Z,8.00
2019-05-22T05:36:55.086Z,8.10
2019-05-22T05:39:57.621Z,8.10
2019-05-22T05:42:27.860Z,8.20
2019-05-22T05:44:56.863Z,8.30
2019-05-22T05:47:26.255Z,8.30
2019-05-22T05:49:56.200Z,8.30
2019-05-22T05:52:28.408Z,8.30
2019-05-22T05:54:58.493Z,8.30
2019-05-22T05:57:37.520Z,8.30
2019-05-22T06:00:12.920Z,8.30
2019-05-22T06:02:55.753Z,8.40
2019-05-22T06:05:16.880Z,8.40
2019-05-22T06:07:49.204Z,8.40
2019-05-22T06:10:30.797Z,8.40
2019-05-22T06:13:04.959Z,8.40
2019-05-22T06:15:47.225Z,8.50
2019-05-22T06:18:35.984Z,8.60
2019-05-22T06:21:08.273Z,8.70
2019-05-22T06:23:44.953Z,8.80
2019-05-22T06:26:26.155Z,8.90
2019-05-22T06:29:05.357Z,9.10
2019-05-22T06:32:00.791Z,9.20
2019-05-22T06:34:21.378Z,9.30
2019-05-22T06:36:50.339Z,9.30
2019-05-22T06:39:25.077Z,9.30
2019-05-22T06:41:57.173Z,9.30
2019-05-22T06:44:38.784Z,9.30
2019-05-22T06:47:12.014Z,9.30
2019-05-22T06:49:44.269Z,9.30
2019-05-22T06:52:25.505Z,9.30
2019-05-22T06:55:08.967Z,9.40
2019-05-22T06:57:38.802Z,9.50
2019-05-22T07:00:15.226Z,9.50
2019-05-22T07:02:50.600Z,9.60
2019-05-22T07:05:19.820Z,9.70
2019-05-22T07:08:04.902Z,9.70
2019-05-22T07:10:32.183Z,9.80
2019-05-22T07:13:01.049Z,9.90
2019-05-22T07:15:36.946Z,9.90
2019-05-22T07:18:06.389Z,10.10
2019-05-22T07:20:36.044Z,10.20
2019-05-22T07:23:07.146Z,10.20
2019-05-22T07:25:37.763Z,10.20
2019-05-22T07:28:07.374Z,10.20
2019-05-22T07:30:36.881Z,10.10
2019-05-22T07:33:06.414Z,10.00
2019-05-22T07:35:55.975Z,9.90
2019-05-22T07:38:08.439Z,9.80
2019-05-22T07:40:37.618Z,9.70
2019-05-22T07:43:07.059Z,9.50
2019-05-22T07:45:38.520Z,9.30
2019-05-22T07:48:09.126Z,9.20
2019-05-22T07:50:39.847Z,9.00
2019-05-22T07:53:09.090Z,8.90
2019-05-22T07:55:41.811Z,8.90
2019-05-22T07:58:15.996Z,8.80
2019-05-22T08:00:51.137Z,8.70
2019-05-22T08:03:21.731Z,8.70
2019-05-22T08:05:55.545Z,8.70
2019-05-22T08:08:25.963Z,8.70
2019-05-22T08:10:56.709Z,8.70
2019-05-22T08:13:26.742Z,8.80
2019-05-22T08:15:58.998Z,8.80
2019-05-22T08:18:30.772Z,8.90
2019-05-22T08:21:02.512Z,9.10
2019-05-22T08:23:31.845Z,9.20
2019-05-22T08:26:01.222Z,9.50
2019-05-22T08:28:32.040Z,9.60
2019-05-22T08:31:01.735Z,9.50
2019-05-22T08:33:32.433Z,9.50
2019-05-22T08:36:03.237Z,9.50
2019-05-22T08:38:34.140Z,9.50
2019-05-22T08:41:05.915Z,9.60
2019-05-22T08:43:56.010Z,9.60
2019-05-22T08:46:07.704Z,9.60
2019-05-22T08:48:38.765Z,9.70
2019-05-22T08:51:09.885Z,9.70
2019-05-22T08:53:47.284Z,9.70
2019-05-22T08:56:09.878Z,9.90
2019-05-22T08:58:39.878Z,10.00
2019-05-22T09:01:10.481Z,10.10
2019-05-22T09:03:39.548Z,10.20
2019-05-22T09:06:09.038Z,10.20
2019-05-22T09:08:37.954Z,10.30
2019-05-22T09:11:06.920Z,10.30
2019-05-22T09:13:35.754Z,10.30
2019-05-22T09:16:05.682Z,10.30
2019-05-22T09:18:34.568Z,10.30
2019-05-22T09:21:03.818Z,10.20
2019-05-22T09:23:37.151Z,10.30
2019-05-22T09:26:06.562Z,10.30
2019-05-22T09:28:35.528Z,10.30
2019-05-22T09:31:05.606Z,10.30
2019-05-22T09:33:37.875Z,10.20
2019-05-22T09:36:08.719Z,10.20
2019-05-22T09:38:37.830Z,10.10
2019-05-22T09:41:06.780Z,10.00
2019-05-22T09:43:38.431Z,10.00
2019-05-22T09:46:09.589Z,10.00
2019-05-22T09:48:39.632Z,10.00
2019-05-22T09:51:08.536Z,10.00
2019-05-22T09:53:38.751Z,10.00
2019-05-22T09:56:07.797Z,10.00
2019-05-22T09:58:37.116Z,10.00
2019-05-22T10:01:10.795Z,10.00
2019-05-22T10:03:40.159Z,9.90
2019-05-22T10:06:09.304Z,9.90
2019-05-22T10:08:38.376Z,9.80
2019-05-22T10:11:10.901Z,9.80
2019-05-22T10:13:41.026Z,9.80
2019-05-22T10:16:10.418Z,9.90
2019-05-22T10:18:39.424Z,9.90
2019-05-22T10:21:08.979Z,9.90
2019-05-22T10:23:39.331Z,10.00
2019-05-22T10:26:09.894Z,10.10
2019-05-22T10:28:39.863Z,10.00
2019-05-22T10:31:10.369Z,10.10
2019-05-22T10:33:40.244Z,10.20
2019-05-22T10:36:09.719Z,10.20
2019-05-22T10:38:38.939Z,10.10
2019-05-22T10:41:11.336Z,10.00
2019-05-22T10:43:40.388Z,9.90
2019-05-22T10:46:09.679Z,9.80
2019-05-22T10:48:40.473Z,9.80
2019-05-22T10:51:09.306Z,9.80
2019-05-22T10:53:38.984Z,9.80
2019-05-22T10:56:08.241Z,9.80
2019-05-22T10:58:37.597Z,9.90
2019-05-22T11:01:08.259Z,9.90
2019-05-22T11:03:38.044Z,9.90
2019-05-22T11:06:08.104Z,9.80
2019-05-22T11:08:37.629Z,9.90
2019-05-22T11:11:06.639Z,9.90
2019-05-22T11:13:36.937Z,9.90
2019-05-22T11:16:06.466Z,10.00
2019-05-22T11:18:36.332Z,10.00
2019-05-22T11:21:05.746Z,10.10
2019-05-22T11:23:50.468Z,10.10
2019-05-22T11:26:06.001Z,10.20
2019-05-22T11:28:35.526Z,10.30
2019-05-22T11:31:06.273Z,10.30
2019-05-22T11:33:35.190Z,10.40
2019-05-22T11:36:04.912Z,10.40
2019-05-22T11:38:33.864Z,10.50
2019-05-22T11:41:03.696Z,10.60
2019-05-22T11:43:33.144Z,10.70
2019-05-22T11:46:03.775Z,10.70
2019-05-22T11:48:35.506Z,10.70
2019-05-22T11:51:04.527Z,10.70
2019-05-22T11:53:33.430Z,10.80
2019-05-22T11:56:02.419Z,10.80
2019-05-22T11:58:31.525Z,10.90
2019-05-22T12:01:01.170Z,11.00
2019-05-22T12:03:33.462Z,11.10
2019-05-22T12:06:03.400Z,11.20
2019-05-22T12:08:33.097Z,11.30
2019-05-22T12:11:03.172Z,11.40
2019-05-22T12:13:32.808Z,11.50
2019-05-22T12:16:04.892Z,11.70
2019-05-22T12:18:35.021Z,11.90
2019-05-22T12:21:04.189Z,11.90
2019-05-22T12:23:33.349Z,12.00
2019-05-22T12:26:02.386Z,12.10
2019-05-22T12:28:35.158Z,12.20
2019-05-22T12:31:04.467Z,12.20
2019-05-22T12:33:34.609Z,12.20
2019-05-22T12:36:03.753Z,12.30
2019-05-22T12:38:33.066Z,12.30
2019-05-22T12:41:03.028Z,12.50
2019-05-22T12:43:33.666Z,13.00
2019-05-22T12:46:02.997Z,13.80
2019-05-22T12:48:32.177Z,14.10
2019-05-22T12:51:01.678Z,14.20
2019-05-22T12:53:33.630Z,14.20
2019-05-22T12:56:02.693Z,14.10
2019-05-22T12:58:33.241Z,13.90
2019-05-22T13:01:02.661Z,13.80
2019-05-22T13:03:33.992Z,13.70
2019-05-22T13:06:03.459Z,13.70
2019-05-22T13:08:33.352Z,13.70
2019-05-22T13:11:05.590Z,13.80
2019-05-22T13:13:34.506Z,13.70
2019-05-22T13:16:03.405Z,13.50
2019-05-22T13:18:35.877Z,13.20
2019-05-22T13:21:05.747Z,13.00
2019-05-22T13:23:41.183Z,12.90
2019-05-22T13:26:10.849Z,12.90
2019-05-22T13:28:41.231Z,13.00
2019-05-22T13:31:11.009Z,13.10
2019-05-22T13:33:42.303Z,13.10
2019-05-22T13:36:14.615Z,13.10
2019-05-22T13:38:47.327Z,13.10
2019-05-22T13:41:16.942Z,13.00
2019-05-22T13:43:50.851Z,12.80
2019-05-22T13:46:20.087Z,12.70
2019-05-22T13:48:49.072Z,12.70
2019-05-22T13:51:18.133Z,12.80
2019-05-22T13:53:47.385Z,13.00
2019-05-22T13:56:17.560Z,13.10
2019-05-22T13:58:46.980Z,13.00
2019-05-22T14:01:15.849Z,13.00
2019-05-22T14:03:45.105Z,13.00
2019-05-22T14:06:14.279Z,12.90
2019-05-22T14:08:43.287Z,12.90
2019-05-22T14:11:12.722Z,12.80
2019-05-22T14:13:41.943Z,12.80
2019-05-22T14:16:11.388Z,12.90
2019-05-22T14:18:42.179Z,13.40
2019-05-22T14:21:11.203Z,13.50
2019-05-22T14:23:46.308Z,13.50
2019-05-22T14:26:15.969Z,13.30
2019-05-22T14:28:45.399Z,13.10
2019-05-22T14:31:14.439Z,12.90
2019-05-22T14:33:43.384Z,12.90
2019-05-22T14:36:12.419Z,12.90
2019-05-22T14:38:41.946Z,13.10
2019-05-22T14:41:11.559Z,13.30
2019-05-22T14:43:40.539Z,13.40
2019-05-22T14:46:09.409Z,13.50
2019-05-22T14:48:39.665Z,13.60
2019-05-22T14:51:09.330Z,13.60
2019-05-22T14:53:43.449Z,13.60
2019-05-22T14:56:12.490Z,13.40
2019-05-22T14:58:44.018Z,13.20
2019-05-22T15:01:14.955Z,13.00
2019-05-22T15:03:44.508Z,13.00
2019-05-22T15:06:14.414Z,12.90
2019-05-22T15:08:43.451Z,12.90
2019-05-22T15:11:13.107Z,13.00
2019-05-22T15:13:42.129Z,13.00
2019-05-22T15:16:11.802Z,12.90
2019-05-22T15:18:47.275Z,12.80
2019-05-22T15:21:17.554Z,12.70
2019-05-22T15:23:48.064Z,12.70
2019-05-22T15:26:17.097Z,12.70
2019-05-22T15:28:46.685Z,12.70
2019-05-22T15:31:16.358Z,12.90
2019-05-22T15:33:47.330Z,12.90
2019-05-22T15:36:19.138Z,12.80
2019-05-22T15:38:48.648Z,12.80
2019-05-22T15:41:18.474Z,12.80
2019-05-22T15:43:52.663Z,12.90
2019-05-22T15:46:20.870Z,12.90
2019-05-22T15:48:52.009Z,12.90
2019-05-22T15:51:23.271Z,12.90
2019-05-22T15:54:01.452Z,12.90
2019-05-22T15:56:34.153Z,12.90
2019-05-22T15:59:13.776Z,13.00
2019-05-22T16:01:54.069Z,13.00
2019-05-22T16:04:23.816Z,13.10
2019-05-22T16:06:52.940Z,13.10
2019-05-22T16:09:25.463Z,13.20
2019-05-22T16:12:00.479Z,13.20
2019-05-22T16:14:44.517Z,13.10
2019-05-22T16:17:21.484Z,13.00
2019-05-22T16:19:52.554Z,12.90
2019-05-22T16:22:23.677Z,12.90
2019-05-22T16:24:52.548Z,12.90
2019-05-22T16:27:32.031Z,13.00
2019-05-22T16:30:14.066Z,13.00
2019-05-22T16:32:44.894Z,13.00
2019-05-22T16:35:14.618Z,12.90
2019-05-22T16:37:46.886Z,12.80
2019-05-22T16:40:16.392Z,12.90
2019-05-22T16:42:51.814Z,12.90
2019-05-22T16:45:30.253Z,12.80
2019-05-22T16:48:05.762Z,12.80
2019-05-22T16:50:35.317Z,12.70
2019-05-22T16:53:08.375Z,12.60
2019-05-22T16:55:38.891Z,12.60
2019-05-22T16:58:07.992Z,12.60
2019-05-22T17:00:42.446Z,12.50
2019-05-22T17:03:23.366Z,12.50
2019-05-22T17:06:19.518Z,12.50
2019-05-22T17:09:17.068Z,12.50
2019-05-22T17:11:57.813Z,12.40
2019-05-22T17:14:37.790Z,12.40
2019-05-22T17:17:17.637Z,12.40
2019-05-22T17:19:58.215Z,12.40
2019-05-22T17:22:40.072Z,12.40
2019-05-22T17:25:19.639Z,12.30
2019-05-22T17:28:03.888Z,12.30
2019-05-22T17:30:40.910Z,12.20
2019-05-22T17:33:23.107Z,12.20
2019-05-22T17:36:05.512Z,12.10
2019-05-22T17:38:42.719Z,12.10
2019-05-22T17:41:17.233Z,12.00
2019-05-22T17:43:47.967Z,12.00
2019-05-22T17:46:18.044Z,11.90
2019-05-22T17:48:57.722Z,11.90
2019-05-22T17:51:26.959Z,11.80
2019-05-22T17:53:56.086Z,11.70
2019-05-22T17:56:28.451Z,11.70
2019-05-22T17:58:57.445Z,11.60
2019-05-22T18:01:27.771Z,11.50
2019-05-22T18:03:56.955Z,11.50
2019-05-22T18:06:26.212Z,11.50
2019-05-22T18:09:06.111Z,11.50
2019-05-22T18:11:46.280Z,11.40
2019-05-22T18:14:15.204Z,11.40
2019-05-22T18:16:45.778Z,11.40
2019-05-22T18:19:14.636Z,11.40
2019-05-22T18:21:43.944Z,11.40
2019-05-22T18:24:13.188Z,11.40
2019-05-22T18:26:42.246Z,11.40
2019-05-22T18:29:11.334Z,11.40
2019-05-22T18:31:40.616Z,11.40
2019-05-22T18:34:09.479Z,11.40
2019-05-22T18:36:38.479Z,11.40
2019-05-22T18:39:09.377Z,11.40
2019-05-22T18:41:38.242Z,11.40
2019-05-22T18:44:07.312Z,11.40
2019-05-22T18:46:36.187Z,11.40
2019-05-22T18:49:05.155Z,11.40
2019-05-22T18:51:34.263Z,11.40
2019-05-22T18:54:03.267Z,11.50
2019-05-22T18:56:32.248Z,11.50
2019-05-22T18:59:01.071Z,11.50
2019-05-22T19:01:30.135Z,11.40
2019-05-22T19:03:59.662Z,11.40
2019-05-22T19:06:30.711Z,11.40
2019-05-22T19:08:59.232Z,11.40
2019-05-22T19:11:31.333Z,11.40
2019-05-22T19:14:00.306Z,11.40
2019-05-22T19:16:29.470Z,11.40
2019-05-22T19:19:04.402Z,11.30
2019-05-22T19:21:33.359Z,11.30
2019-05-22T19:24:02.313Z,11.30
2019-05-22T19:26:31.926Z,11.30
2019-05-22T19:29:01.201Z,11.20
2019-05-22T19:31:30.472Z,11.20
2019-05-22T19:33:59.592Z,11.10
2019-05-22T19:36:28.466Z,11.00
2019-05-22T19:38:58.809Z,11.00
2019-05-22T19:41:27.928Z,11.00
2019-05-22T19:43:57.133Z,11.00
2019-05-22T19:46:26.123Z,11.00
2019-05-22T19:48:55.925Z,11.00
2019-05-22T19:51:25.054Z,10.90
2019-05-22T19:53:53.918Z,10.80
2019-05-22T19:56:23.849Z,10.70
2019-05-22T19:58:53.773Z,10.60
2019-05-22T20:01:23.088Z,10.60
2019-05-22T20:03:52.589Z,10.50
2019-05-22T20:06:22.629Z,10.50
2019-05-22T20:08:51.603Z,10.50
2019-05-22T20:11:20.715Z,10.50
2019-05-22T20:13:49.857Z,10.50
2019-05-22T20:16:19.044Z,10.50
2019-05-22T20:18:47.878Z,10.50
2019-05-22T20:21:16.805Z,10.50
2019-05-22T20:23:45.670Z,10.50
2019-05-22T20:26:14.771Z,10.50
2019-05-22T20:28:43.784Z,10.50
2019-05-22T20:31:12.673Z,10.50
2019-05-22T20:33:42.187Z,10.50
2019-05-22T20:36:11.914Z,10.50
2019-05-22T20:38:40.776Z,10.50
2019-05-22T20:41:09.909Z,10.50
2019-05-22T20:43:40.640Z,10.50
2019-05-22T20:46:11.539Z,10.50
2019-05-22T20:48:43.263Z,10.50
2019-05-22T20:51:16.941Z,10.50
2019-05-22T20:53:54.008Z,10.50
2019-05-22T20:56:20.603Z,10.50
2019-05-22T20:58:56.120Z,10.50
2019-05-22T21:01:25.095Z,10.50
2019-05-22T21:03:54.139Z,10.50
2019-05-22T21:06:25.403Z,10.40
2019-05-22T21:08:57.388Z,10.40
2019-05-22T21:11:30.009Z,10.30
2019-05-22T21:14:02.289Z,10.30
2019-05-22T21:16:35.126Z,10.30
2019-05-22T21:19:05.181Z,10.30
2019-05-22T21:21:35.131Z,10.30
2019-05-22T21:24:11.217Z,10.30
2019-05-22T21:26:37.439Z,10.30
2019-05-22T21:29:07.465Z,10.30
2019-05-22T21:31:36.713Z,10.30
2019-05-22T21:34:05.839Z,10.30
2019-05-22T21:36:34.854Z,10.30
2019-05-22T21:39:05.764Z,10.20
2019-05-22T21:41:34.678Z,10.20
2019-05-22T21:44:04.753Z,10.20
2019-05-22T21:46:35.814Z,10.20
2019-05-22T21:49:15.783Z,10.20
2019-05-22T21:51:57.457Z,10.30
2019-05-22T21:54:27.582Z,10.30
2019-05-22T21:56:57.419Z,10.20
2019-05-22T21:59:27.117Z,10.20
2019-05-22T22:02:01.450Z,10.20
2019-05-22T22:04:40.486Z,10.20
2019-05-22T22:07:09.314Z,10.20
2019-05-22T22:09:39.370Z,10.20
2019-05-22T22:12:16.483Z,10.20
2019-05-22T22:14:45.848Z,10.20
2019-05-22T22:17:17.090Z,10.20
2019-05-22T22:19:47.205Z,10.10
2019-05-22T22:22:26.883Z,10.10
2019-05-22T22:25:18.583Z,10.10
2019-05-22T22:27:47.853Z,10.10
2019-05-22T22:30:29.743Z,10.10
2019-05-22T22:33:01.812Z,10.10
2019-05-22T22:35:34.401Z,10.10
2019-05-22T22:38:05.198Z,10.10
2019-05-22T22:40:36.758Z,10.10
2019-05-22T22:43:06.453Z,10.10
2019-05-22T22:45:43.694Z,10.10
2019-05-22T22:48:16.068Z,10.10
2019-05-22T22:50:45.647Z,10.10
2019-05-22T22:53:19.115Z,10.10
2019-05-22T22:55:49.515Z,10.10
2019-05-22T22:58:19.725Z,10.10
2019-05-22T23:00:54.808Z,10.10
2019-05-22T23:03:26.816Z,10.10
2019-05-22T23:05:56.019Z,10.10
2019-05-22T23:08:33.688Z,10.10
2019-05-22T23:11:04.897Z,10.00
2019-05-22T23:13:34.071Z,10.00
2019-05-22T23:16:04.802Z,10.10
2019-05-22T23:18:43.874Z,10.10
2019-05-22T23:21:13.195Z,10.20
2019-05-22T23:23:41.506Z,10.20
2019-05-22T23:26:11.776Z,10.20
2019-05-22T23:28:42.266Z,10.20
2019-05-22T23:31:12.233Z,10.20
2019-05-22T23:33:41.196Z,10.20
2019-05-22T23:36:12.244Z,10.20
2019-05-22T23:38:41.648Z,10.20
2019-05-22T23:41:12.146Z,10.10
2019-05-22T23:43:42.497Z,10.10
2019-05-22T23:46:13.581Z,10.10
2019-05-22T23:48:44.146Z,10.10
2019-05-22T23:51:13.054Z,10.00
2019-05-22T23:53:43.049Z,10.00
2019-05-22T23:56:11.996Z,10.00
2019-05-22T23:58:52.141Z,10.00
